createdAt,value
2023-03-24T00:00:24.237Z,20.13
2023-03-24T00:05:28.903Z,20.58
2023-03-24T00:10:34.990Z,20.42
2023-03-24T00:15:37.750Z,23.95
2023-03-24T00:20:42.549Z,29.38
2023-03-24T00:25:45.384Z,30.42
2023-03-24T00:30:53.359Z,25.55
2023-03-24T00:35:58.101Z,29.98
2023-03-24T00:41:02.063Z,28.50
2023-03-24T00:46:11.510Z,19.95
2023-03-24T00:51:14.173Z,16.95
2023-03-24T00:56:16.733Z,17.17
2023-03-24T01:01:22.391Z,12.00
2023-03-24T01:06:24.998Z,15.43
2023-03-24T01:11:28.664Z,13.45
2023-03-24T01:16:31.508Z,21.55
2023-03-24T01:21:35.400Z,14.77
2023-03-24T01:26:38.430Z,13.00
2023-03-24T01:31:41.191Z,17.55
2023-03-24T01:36:44.077Z,14.93
2023-03-24T01:41:47.451Z,17.80
2023-03-24T01:46:50.086Z,20.60
2023-03-24T01:52:00.144Z,22.42
2023-03-24T01:57:12.462Z,20.40
2023-03-24T02:02:17.625Z,25.80
2023-03-24T02:07:51.217Z,21.50
2023-03-24T02:12:54.380Z,15.30
2023-03-24T02:18:33.408Z,25.65
2023-03-24T02:24:00.721Z,24.50
2023-03-24T02:29:37.265Z,18.77
2023-03-24T02:34:50.284Z,18.95
2023-03-24T02:40:08.368Z,18.85
2023-03-24T02:45:31.207Z,18.80
2023-03-24T02:51:14.768Z,19.00
2023-03-24T02:56:32.116Z,19.70
2023-03-24T03:01:54.661Z,18.75
2023-03-24T03:07:17.006Z,18.67
2023-03-24T03:12:22.947Z,16.67
2023-03-24T03:17:33.726Z,17.15
2023-03-24T03:22:49.911Z,21.58
2023-03-24T03:27:56.967Z,19.23
2023-03-24T03:33:06.182Z,16.92
2023-03-24T03:38:20.604Z,18.02
2023-03-24T03:43:24.646Z,22.02
2023-03-24T03:48:29.549Z,28.05
2023-03-24T03:53:41.605Z,30.00
2023-03-24T03:58:46.992Z,19.55
2023-03-24T04:04:20.539Z,24.10
2023-03-24T04:10:07.829Z,19.92
2023-03-24T04:15:43.028Z,24.48
2023-03-24T04:21:34.859Z,18.13
2023-03-24T04:26:56.498Z,16.73
2023-03-24T04:32:35.272Z,15.02
2023-03-24T04:37:39.038Z,18.30
2023-03-24T04:42:56.938Z,16.80
2023-03-24T04:48:09.042Z,16.98
2023-03-24T04:53:31.868Z,16.13
2023-03-24T04:58:35.000Z,19.23
2023-03-24T05:03:38.471Z,14.75
2023-03-24T05:08:41.673Z,20.50
2023-03-24T05:13:44.777Z,22.35
2023-03-24T05:18:47.969Z,17.27
2023-03-24T05:23:50.772Z,18.27
2023-03-24T05:28:54.226Z,18.70
2023-03-24T05:33:57.276Z,18.45
2023-03-24T05:39:01.418Z,19.38
2023-03-24T05:44:17.051Z,19.88
2023-03-24T05:49:32.016Z,19.70
2023-03-24T05:54:36.674Z,18.52
2023-03-24T05:59:50.235Z,15.10
2023-03-24T06:05:15.700Z,16.77
2023-03-24T06:15:28.314Z,17.85
2023-03-24T06:20:39.342Z,13.95
2023-03-24T06:25:45.065Z,14.57
2023-03-24T06:30:59.127Z,20.65
2023-03-24T06:36:09.482Z,13.45
2023-03-24T06:41:12.963Z,14.77
2023-03-24T06:46:15.988Z,14.80
2023-03-24T06:51:21.829Z,15.15
2023-03-24T06:56:24.966Z,15.07
2023-03-24T07:01:35.460Z,12.43
2023-03-24T07:06:59.873Z,15.13
2023-03-24T07:12:07.762Z,14.48
2023-03-24T07:17:12.378Z,16.83
2023-03-24T07:22:21.630Z,11.45
2023-03-24T07:27:59.203Z,16.30
2023-03-24T07:38:06.223Z,18.75
2023-03-24T07:43:09.041Z,18.30
2023-03-24T07:48:32.715Z,9.95
2023-03-24T07:58:38.138Z,11.80
2023-03-24T08:03:59.097Z,11.25
2023-03-24T08:09:24.432Z,17.02
2023-03-24T08:14:27.049Z,12.60
2023-03-24T08:19:29.806Z,16.73
2023-03-24T08:24:32.507Z,16.77
2023-03-24T08:29:35.902Z,13.80
2023-03-24T08:34:38.576Z,15.73
2023-03-24T08:44:44.765Z,17.20
2023-03-24T08:49:47.301Z,21.67
2023-03-24T08:54:50.747Z,20.13
2023-03-24T08:59:54.476Z,16.60
2023-03-24T09:09:59.511Z,19.63
2023-03-24T09:15:02.730Z,20.50
2023-03-24T09:20:13.218Z,22.42
2023-03-24T09:25:18.810Z,21.08
2023-03-24T09:30:21.441Z,21.35
2023-03-24T09:35:23.931Z,24.13
2023-03-24T09:40:37.659Z,22.85
2023-03-24T09:46:01.255Z,20.58
2023-03-24T09:51:06.327Z,21.95
2023-03-24T09:56:17.062Z,17.88
2023-03-24T10:01:20.728Z,24.48
2023-03-24T10:06:31.115Z,23.90
2023-03-24T10:12:03.283Z,18.58
2023-03-24T10:17:17.516Z,23.83
2023-03-24T10:22:28.640Z,35.20
2023-03-24T10:27:40.728Z,29.48
2023-03-24T10:32:44.737Z,39.63
2023-03-24T10:37:48.414Z,35.92
2023-03-24T10:43:06.806Z,33.75
2023-03-24T10:48:14.448Z,26.38
2023-03-24T10:53:21.536Z,34.50
2023-03-24T10:58:36.320Z,33.63
2023-03-24T11:03:42.654Z,26.80
2023-03-24T11:08:46.480Z,32.47
2023-03-24T11:13:57.869Z,30.48
2023-03-24T11:19:05.812Z,24.42
2023-03-24T11:24:16.286Z,21.63
2023-03-24T11:29:28.214Z,21.50
2023-03-24T11:34:39.081Z,22.10
2023-03-24T11:39:47.356Z,27.00
2023-03-24T11:44:59.346Z,25.73
2023-03-24T11:50:26.416Z,23.30
2023-03-24T11:55:53.884Z,23.80
2023-03-24T12:01:10.960Z,19.95
2023-03-24T12:06:48.412Z,21.38
2023-03-24T12:12:47.020Z,22.15
2023-03-24T12:18:17.290Z,21.63
2023-03-24T12:23:38.034Z,21.10
2023-03-24T12:28:55.518Z,17.08
2023-03-24T12:34:17.302Z,25.50
2023-03-24T12:40:05.056Z,22.83
2023-03-24T12:45:34.955Z,17.88
2023-03-24T12:50:39.003Z,24.08
2023-03-24T12:56:28.314Z,29.95
2023-03-24T13:01:40.926Z,24.63
2023-03-24T13:06:57.512Z,17.63
2023-03-24T13:12:12.688Z,18.77
2023-03-24T13:17:27.526Z,16.02
2023-03-24T13:22:33.570Z,25.00
2023-03-24T13:27:43.566Z,36.08
2023-03-24T13:33:26.275Z,21.25
2023-03-24T13:38:54.152Z,22.73
2023-03-24T13:44:10.926Z,29.58
2023-03-24T13:49:19.866Z,22.77
2023-03-24T13:54:31.951Z,24.38
2023-03-24T14:05:13.157Z,19.60
2023-03-24T14:10:26.700Z,41.65
2023-03-24T14:15:41.622Z,29.70
2023-03-24T14:21:09.045Z,24.98
2023-03-24T14:26:36.307Z,23.60
2023-03-24T14:31:41.882Z,26.08
2023-03-24T14:36:45.997Z,36.28
2023-03-24T14:41:52.192Z,33.17
2023-03-24T14:46:58.930Z,30.05
2023-03-24T14:52:26.020Z,36.45
2023-03-24T14:57:43.149Z,41.05
2023-03-24T15:02:48.938Z,28.13
2023-03-24T15:08:13.816Z,35.70
2023-03-24T15:13:40.407Z,44.35
2023-03-24T15:19:00.438Z,43.25
2023-03-24T15:24:35.235Z,48.85
2023-03-24T15:29:41.325Z,48.92
2023-03-24T15:34:52.061Z,50.47
2023-03-24T15:40:01.885Z,59.75
2023-03-24T15:45:33.460Z,62.08
2023-03-24T15:51:08.147Z,49.90
2023-03-24T15:56:30.956Z,46.92
2023-03-24T16:01:39.098Z,53.50
2023-03-24T16:07:02.998Z,49.22
2023-03-24T16:12:11.216Z,58.03
2023-03-24T16:17:13.863Z,51.30
2023-03-24T16:22:16.471Z,49.45
2023-03-24T16:27:19.061Z,44.75
2023-03-24T16:32:24.055Z,43.28
2023-03-24T16:37:28.368Z,52.08
2023-03-24T16:42:32.166Z,52.30
2023-03-24T16:47:34.750Z,56.38
2023-03-24T16:52:37.517Z,53.20
2023-03-24T16:57:40.046Z,54.15
2023-03-24T17:02:48.566Z,40.38
2023-03-24T17:07:52.689Z,40.70
2023-03-24T17:12:56.934Z,49.85
2023-03-24T17:18:01.104Z,53.15
2023-03-24T17:23:03.899Z,61.25
2023-03-24T17:28:13.361Z,54.75
2023-03-24T17:33:16.043Z,57.42
2023-03-24T17:38:18.773Z,56.80
2023-03-24T17:43:21.263Z,57.05
2023-03-24T17:48:24.008Z,57.17
2023-03-24T17:53:27.769Z,45.53
2023-03-24T17:58:30.971Z,72.72
2023-03-24T18:03:37.297Z,59.72
2023-03-24T18:08:40.342Z,63.90
2023-03-24T18:13:43.993Z,53.40
2023-03-24T18:18:47.644Z,60.88
2023-03-24T18:23:50.899Z,61.13
2023-03-24T18:28:53.704Z,60.55
2023-03-24T18:33:56.200Z,53.70
2023-03-24T18:39:02.050Z,42.75
2023-03-24T18:44:07.584Z,52.55
2023-03-24T18:49:14.780Z,54.40
2023-03-24T18:54:17.479Z,63.70
2023-03-24T18:59:20.353Z,56.08
2023-03-24T19:04:22.875Z,48.40
2023-03-24T19:09:26.012Z,35.15
2023-03-24T19:14:28.892Z,44.53
2023-03-24T19:19:31.807Z,37.85
2023-03-24T19:24:34.365Z,27.98
2023-03-24T19:29:37.672Z,31.58
2023-03-24T19:34:40.270Z,35.67
2023-03-24T19:39:42.759Z,35.00
2023-03-24T19:44:45.253Z,31.80
2023-03-24T19:49:49.867Z,70.05
2023-03-24T19:54:52.768Z,31.25
2023-03-24T19:59:55.309Z,40.97
2023-03-24T20:04:58.618Z,45.80
2023-03-24T20:10:01.225Z,44.03
2023-03-24T20:15:05.958Z,43.25
2023-03-24T20:20:10.627Z,29.27
2023-03-24T20:25:16.237Z,31.27
2023-03-24T20:30:20.343Z,24.10
2023-03-24T20:35:23.482Z,24.88
2023-03-24T20:40:26.068Z,24.05
2023-03-24T20:45:28.671Z,22.92
2023-03-24T20:50:31.579Z,24.52
2023-03-24T20:55:34.025Z,21.27
2023-03-24T21:00:38.152Z,27.35
2023-03-24T21:05:40.660Z,25.88
2023-03-24T21:10:43.461Z,31.10
2023-03-24T21:15:46.046Z,23.15
2023-03-24T21:20:56.313Z,20.92
2023-03-24T21:25:58.884Z,17.65
2023-03-24T21:31:21.795Z,27.95
2023-03-24T21:36:27.604Z,16.00
2023-03-24T21:41:31.389Z,15.25
2023-03-24T21:46:33.858Z,12.45
2023-03-24T21:51:37.468Z,33.38
2023-03-24T21:56:40.048Z,15.05
2023-03-24T22:01:42.968Z,22.98
2023-03-24T22:06:47.616Z,20.02
2023-03-24T22:11:51.230Z,13.15
2023-03-24T22:16:53.908Z,18.17
2023-03-24T22:22:01.783Z,18.20
2023-03-24T22:27:04.352Z,20.52
2023-03-24T22:32:06.854Z,14.43
2023-03-24T22:37:09.396Z,18.67
2023-03-24T22:42:12.492Z,15.65
2023-03-24T22:47:15.175Z,15.82
2023-03-24T22:52:17.649Z,16.33
2023-03-24T22:57:20.203Z,17.77
2023-03-24T23:02:24.772Z,16.50
2023-03-24T23:07:28.367Z,13.52
2023-03-24T23:12:31.770Z,18.55
2023-03-24T23:17:34.362Z,16.08
2023-03-24T23:22:38.544Z,21.98
2023-03-24T23:27:42.131Z,25.33
2023-03-24T23:32:47.376Z,14.85
2023-03-24T23:37:50.124Z,18.70
2023-03-24T23:42:52.712Z,21.73
2023-03-24T23:47:55.262Z,11.40
2023-03-24T23:52:58.670Z,13.32
2023-03-24T23:58:01.338Z,21.73
